Time;durP1;ratioP1;P1;durP2;ratioP2;P2;SDS_P1;SDS_P2;PMS_P1;PMS_P2;Temp;Humidity;BMP_temperature;BMP_pressure;BME280_temperature;BME280_humidity;BME280_pressure;Samples;Min_cycle;Max_cycle;Signal;HPM_P1;HPM_P2
2023/09/16 00:01:49;;;;;;;14.80;10.50;;;;;;;18.12;72.15;101307.92;108287;1253;61135;-72
2023/09/16 00:04:18;;;;;;;15.40;11.10;;;;;;;18.09;72.48;101312.60;108238;1252;74525;-71
2023/09/16 00:06:46;;;;;;;13.60;10.20;;;;;;;18.08;72.38;101316.46;108243;1252;72664;-71
2023/09/16 00:09:13;;;;;;;14.30;11.10;;;;;;;18.06;72.54;101316.59;108070;1253;74948;-70
2023/09/16 00:11:40;;;;;;;16.00;11.60;;;;;;;18.03;72.58;101321.16;108158;1256;62147;-71
2023/09/16 00:14:07;;;;;;;16.00;12.20;;;;;;;17.99;72.77;101324.73;108275;1253;60622;-71
2023/09/16 00:16:34;;;;;;;16.50;11.60;;;;;;;17.87;73.22;101325.13;108109;1254;73645;-71
2023/09/16 00:19:02;;;;;;;16.80;12.20;;;;;;;17.88;73.38;101328.75;107982;1254;72506;-70
2023/09/16 00:21:32;;;;;;;17.60;11.90;;;;;;;17.91;73.41;101327.75;108412;1253;71867;-71
2023/09/16 00:23:59;;;;;;;14.00;10.30;;;;;;;17.90;73.51;101327.25;108123;1252;62425;-70
2023/09/16 00:26:27;;;;;;;15.40;10.90;;;;;;;17.90;73.53;101326.87;108202;1253;61323;-70
2023/09/16 00:28:55;;;;;;;16.60;11.60;;;;;;;17.90;73.67;101326.98;108176;1253;74448;-70
2023/09/16 00:31:21;;;;;;;16.40;12.00;;;;;;;17.89;73.70;101329.16;108248;1254;72587;-72
2023/09/16 00:33:49;;;;;;;15.30;10.60;;;;;;;17.85;73.84;101327.69;108424;1254;73106;-72
2023/09/16 00:36:16;;;;;;;16.60;10.90;;;;;;;17.82;73.87;101326.58;108149;1254;61843;-71
2023/09/16 00:38:43;;;;;;;15.50;11.10;;;;;;;17.79;74.06;101332.50;108163;1253;63545;-72
2023/09/16 00:41:12;;;;;;;17.10;11.80;;;;;;;17.80;74.07;101336.92;108219;1253;73617;-72
2023/09/16 00:43:39;;;;;;;15.90;11.50;;;;;;;17.80;74.18;101338.44;108259;1254;71272;-71
2023/09/16 00:46:06;;;;;;;17.10;11.50;;;;;;;17.84;74.31;101341.27;108075;1254;72555;-72
2023/09/16 00:48:35;;;;;;;18.00;11.40;;;;;;;17.88;74.15;101345.98;108168;1253;61991;-72
2023/09/16 00:51:02;;;;;;;14.40;10.90;;;;;;;17.91;74.33;101348.48;108285;1253;60584;-72
2023/09/16 00:53:29;;;;;;;14.60;11.30;;;;;;;17.93;74.18;101352.86;108444;1253;73866;-71
2023/09/16 00:55:58;;;;;;;16.10;11.90;;;;;;;17.92;74.12;101354.86;108125;1254;72835;-73
2023/09/16 00:58:24;;;;;;;16.70;11.60;;;;;;;17.89;74.28;101355.49;108092;1253;72720;-72
2023/09/16 01:00:52;;;;;;;16.40;11.50;;;;;;;17.95;74.14;101358.61;108257;1253;61978;-73
2023/09/16 01:03:19;;;;;;;17.40;11.30;;;;;;;17.99;74.23;101364.45;108043;1253;62314;-71
2023/09/16 01:05:47;;;;;;;15.20;11.60;;;;;;;17.98;74.16;101366.24;108297;1254;74648;-71
2023/09/16 01:08:15;;;;;;;18.10;12.40;;;;;;;17.98;74.07;101370.58;108243;1253;73168;-71
2023/09/16 01:10:42;;;;;;;15.50;11.40;;;;;;;17.91;74.41;101370.86;108351;1253;71924;-72
2023/09/16 01:13:09;;;;;;;17.60;12.30;;;;;;;17.89;74.44;101370.71;108056;1253;61965;-72
2023/09/16 01:15:49;;;;;;;16.70;12.10;;;;;;;17.88;74.48;101370.19;108136;1253;61154;-71
2023/09/16 01:18:29;;;;;;;17.20;11.30;;;;;;;17.90;74.50;101373.37;108198;1254;76011;-71
2023/09/16 01:20:58;;;;;;;17.70;12.60;;;;;;;17.88;74.54;101375.10;108209;1254;72535;-72
2023/09/16 01:23:25;;;;;;;18.20;12.30;;;;;;;17.85;74.62;101380.33;108211;1254;71187;-72
2023/09/16 01:25:52;;;;;;;18.00;12.90;;;;;;;17.84;74.81;101377.43;108781;1253;61852;-72
2023/09/16 01:28:19;;;;;;;16.10;12.30;;;;;;;17.84;74.78;101381.98;108261;1254;61099;-71
2023/09/16 01:30:47;;;;;;;20.10;13.10;;;;;;;17.83;74.83;101384.89;108263;1254;74442;-72
2023/09/16 01:33:33;;;;;;;22.00;15.60;;;;;;;17.79;74.88;101388.06;108309;1254;72722;-71
2023/09/16 01:36:03;;;;;;;22.80;14.20;;;;;;;17.74;74.91;101387.70;108207;1253;71263;-72
2023/09/16 01:38:32;;;;;;;20.00;14.10;;;;;;;17.72;75.09;101387.71;108184;1253;61001;-72
2023/09/16 01:40:59;;;;;;;22.30;15.20;;;;;;;17.70;75.21;101392.60;108192;1254;61183;-71
2023/09/16 01:43:26;;;;;;;25.60;16.10;;;;;;;17.68;75.40;101393.44;108120;1259;75835;-71
2023/09/16 01:45:53;;;;;;;24.70;15.40;;;;;;;17.66;75.43;101392.54;108127;1253;71660;-71
2023/09/16 01:48:21;;;;;;;21.50;14.80;;;;;;;17.64;75.47;101396.72;108230;1254;72740;-71
2023/09/16 01:51:03;;;;;;;22.80;15.10;;;;;;;17.63;75.68;101397.70;108199;1253;61984;-71
2023/09/16 01:53:29;;;;;;;22.00;14.20;;;;;;;17.66;75.77;101397.78;108071;1253;59561;-71
2023/09/16 01:55:57;;;;;;;20.10;13.60;;;;;;;17.78;75.49;101397.94;108246;1253;73549;-74
2023/09/16 01:58:24;;;;;;;23.70;15.10;;;;;;;17.85;75.28;101398.92;108305;1255;71574;-70
2023/09/16 02:00:51;;;;;;;23.60;14.70;;;;;;;17.87;75.15;101400.63;108018;1254;72335;-71
2023/09/16 02:03:18;;;;;;;24.60;15.80;;;;;;;17.91;75.14;101401.52;108092;1252;61969;-73
2023/09/16 02:05:44;;;;;;;22.80;15.70;;;;;;;17.96;75.12;101403.79;108316;1252;61327;-71
2023/09/16 02:08:11;;;;;;;23.00;14.70;;;;;;;18.01;75.01;101399.36;108107;1254;74674;-71
2023/09/16 02:10:38;;;;;;;22.60;15.30;;;;;;;18.03;74.98;101406.48;108305;1254;72714;-71
2023/09/16 02:13:05;;;;;;;22.00;15.50;;;;;;;18.03;74.69;101406.69;108267;1257;72427;-71
2023/09/16 02:15:34;;;;;;;22.10;14.80;;;;;;;18.01;74.66;101407.80;108214;1252;61738;-71
2023/09/16 02:18:02;;;;;;;19.80;14.20;;;;;;;17.96;74.50;101410.43;108191;1255;61239;-71
2023/09/16 02:20:29;;;;;;;24.60;14.80;;;;;;;17.94;74.57;101409.92;108084;1254;74613;-72
2023/09/16 02:22:56;;;;;;;19.90;14.60;;;;;;;17.95;74.64;101414.06;108155;1254;72786;-71
2023/09/16 02:25:24;;;;;;;22.20;14.30;;;;;;;17.96;74.69;101414.05;108197;1254;71247;-72
2023/09/16 02:27:51;;;;;;;20.70;14.60;;;;;;;17.96;74.57;101415.79;108539;1254;61738;-72
2023/09/16 02:30:18;;;;;;;17.80;13.30;;;;;;;17.93;74.56;101415.55;108204;1253;61276;-72
2023/09/16 02:32:45;;;;;;;17.70;13.80;;;;;;;17.90;74.68;101417.58;108189;1253;74726;-71
2023/09/16 02:35:16;;;;;;;19.00;13.80;;;;;;;17.89;74.45;101420.28;108107;1253;72689;-72
2023/09/16 02:37:43;;;;;;;18.20;14.00;;;;;;;17.88;74.55;101422.02;108185;1253;72620;-72
2023/09/16 02:40:11;;;;;;;17.10;13.30;;;;;;;17.86;74.52;101425.30;108048;1256;61481;-72
2023/09/16 02:42:37;;;;;;;16.90;13.80;;;;;;;17.83;74.55;101423.38;108047;1254;61208;-72
2023/09/16 02:45:05;;;;;;;18.60;14.50;;;;;;;17.79;74.63;101422.59;108257;1252;73908;-72
2023/09/16 02:47:33;;;;;;;16.80;13.30;;;;;;;17.76;74.69;101423.95;108098;1254;72574;-72
2023/09/16 02:50:02;;;;;;;15.70;12.90;;;;;;;17.73;74.73;101427.70;108115;1253;71535;-72
2023/09/16 02:52:31;;;;;;;16.90;13.50;;;;;;;17.71;74.72;101428.04;108145;1254;61648;-72
2023/09/16 02:54:58;;;;;;;18.20;14.10;;;;;;;17.70;74.75;101430.05;108210;1254;60351;-72
2023/09/16 02:57:24;;;;;;;17.60;14.00;;;;;;;17.71;74.84;101427.40;108110;1253;74564;-72
2023/09/16 02:59:52;;;;;;;17.20;13.90;;;;;;;17.71;74.88;101426.37;108435;1252;72908;-70
2023/09/16 03:02:19;;;;;;;17.00;14.60;;;;;;;17.70;74.93;101424.21;108070;1253;72733;-71
2023/09/16 03:04:46;;;;;;;16.60;14.70;;;;;;;17.68;74.87;101425.86;108107;1254;61112;-72
2023/09/16 03:07:14;;;;;;;16.70;14.30;;;;;;;17.67;74.81;101430.62;108249;1254;61206;-72
2023/09/16 03:09:42;;;;;;;18.60;14.50;;;;;;;17.68;74.79;101434.23;108074;1254;73361;-72
2023/09/16 03:12:10;;;;;;;17.30;14.40;;;;;;;17.68;74.70;101435.86;108277;1253;72749;-72
2023/09/16 03:14:37;;;;;;;17.80;14.00;;;;;;;17.68;74.70;101438.45;108338;1254;70298;-71
2023/09/16 03:17:04;;;;;;;18.30;14.40;;;;;;;17.68;74.68;101441.16;108050;1254;61817;-71
2023/09/16 03:19:32;;;;;;;18.60;15.20;;;;;;;17.65;74.55;101442.99;108038;1254;61157;-71
2023/09/16 03:21:58;;;;;;;17.30;14.30;;;;;;;17.61;74.48;101444.56;108211;1254;74676;-72
2023/09/16 03:24:25;;;;;;;19.20;14.40;;;;;;;17.62;74.57;101447.95;108151;1253;74417;-72
2023/09/16 03:26:53;;;;;;;22.10;15.90;;;;;;;17.60;74.44;101446.13;108115;1253;72377;-71
2023/09/16 03:29:22;;;;;;;18.30;14.80;;;;;;;17.57;74.67;101448.73;108117;1252;61729;-71
2023/09/16 03:31:48;;;;;;;19.30;15.30;;;;;;;17.60;74.77;101450.77;108315;1254;60106;-71
2023/09/16 03:34:21;;;;;;;19.50;15.20;;;;;;;17.63;74.55;101456.70;108237;1254;74663;-71
2023/09/16 03:36:48;;;;;;;18.20;14.90;;;;;;;17.61;74.48;101456.33;108118;1254;72087;-71
2023/09/16 03:39:15;;;;;;;20.20;15.50;;;;;;;17.63;74.48;101458.92;108064;1253;73156;-72
2023/09/16 03:41:42;;;;;;;19.90;15.30;;;;;;;17.65;74.43;101463.05;108309;1254;62485;-71
2023/09/16 03:44:10;;;;;;;18.50;15.40;;;;;;;17.62;74.37;101465.02;108173;1253;61094;-70
2023/09/16 03:46:39;;;;;;;19.30;15.80;;;;;;;17.57;74.52;101470.30;108333;1254;74643;-73
2023/09/16 03:49:07;;;;;;;18.90;15.20;;;;;;;17.51;74.65;101473.05;108188;1256;71470;-73
2023/09/16 03:51:37;;;;;;;20.50;15.80;;;;;;;17.46;74.69;101476.36;108201;1256;71130;-72
2023/09/16 03:54:06;;;;;;;20.30;16.30;;;;;;;17.44;74.83;101481.24;108274;1254;61876;-71
2023/09/16 03:56:34;;;;;;;19.70;15.50;;;;;;;17.44;75.13;101483.13;108035;1254;61233;-71
2023/09/16 03:59:01;;;;;;;20.30;15.80;;;;;;;17.45;75.02;101482.06;108018;1254;77432;-71
2023/09/16 04:01:30;;;;;;;21.00;16.50;;;;;;;17.48;75.23;101481.23;108252;1254;72719;-71
2023/09/16 04:03:57;;;;;;;20.90;16.10;;;;;;;17.54;75.25;101483.44;108207;1254;71170;-72
2023/09/16 04:06:24;;;;;;;20.00;15.60;;;;;;;17.57;75.12;101482.23;108163;1254;61091;-72
2023/09/16 04:08:51;;;;;;;20.00;16.20;;;;;;;17.61;75.09;101477.84;108240;1254;59644;-71
2023/09/16 04:11:17;;;;;;;18.40;16.10;;;;;;;17.63;75.13;101483.50;108229;1254;74421;-71
2023/09/16 04:13:45;;;;;;;21.10;16.80;;;;;;;17.65;75.17;101480.67;108193;1254;72700;-71
2023/09/16 04:16:12;;;;;;;20.20;16.90;;;;;;;17.67;75.15;101483.19;108455;1253;72576;-72
2023/09/16 04:18:39;;;;;;;22.30;17.30;;;;;;;17.70;75.23;101484.08;108163;1254;62441;-72
2023/09/16 04:21:06;;;;;;;21.20;16.70;;;;;;;17.72;75.16;101483.59;108211;1256;61278;-72
2023/09/16 04:23:36;;;;;;;20.30;16.30;;;;;;;17.73;75.15;101489.31;108173;1254;74699;-72
2023/09/16 04:26:05;;;;;;;20.30;17.20;;;;;;;17.76;75.18;101489.14;108162;1254;71532;-72
2023/09/16 04:28:32;;;;;;;20.40;16.90;;;;;;;17.78;75.17;101488.66;108321;1256;71678;-72
2023/09/16 04:30:59;;;;;;;19.90;16.80;;;;;;;17.82;75.17;101493.42;108175;1254;61825;-72
2023/09/16 04:33:31;;;;;;;20.70;17.30;;;;;;;17.89;75.01;101493.33;108262;1254;60223;-72
2023/09/16 04:35:59;;;;;;;23.60;18.60;;;;;;;17.93;75.07;101495.34;108249;1252;73188;-72
2023/09/16 04:38:28;;;;;;;20.10;17.20;;;;;;;17.96;74.98;101494.13;108182;1254;72776;-72
2023/09/16 04:40:56;;;;;;;20.00;16.40;;;;;;;17.99;74.84;101498.64;108045;1254;72631;-71
2023/09/16 04:43:25;;;;;;;18.40;15.30;;;;;;;18.02;74.82;101497.69;108547;1257;62769;-71
2023/09/16 04:45:54;;;;;;;20.40;17.30;;;;;;;18.04;74.68;101503.09;108298;1254;61099;-70
2023/09/16 04:48:31;;;;;;;19.70;16.40;;;;;;;18.06;74.71;101503.17;108108;1254;74669;-71
2023/09/16 04:50:58;;;;;;;20.20;17.40;;;;;;;18.08;74.59;101504.40;108228;1254;72528;-72
2023/09/16 04:53:25;;;;;;;19.90;17.10;;;;;;;18.10;74.31;101502.42;108196;1254;72612;-71
2023/09/16 04:56:00;;;;;;;19.70;17.00;;;;;;;18.12;74.27;101502.30;108132;1256;61307;-71
2023/09/16 04:58:28;;;;;;;20.60;16.90;;;;;;;18.15;74.23;101504.44;108073;1254;61111;-71
2023/09/16 05:00:58;;;;;;;18.70;16.00;;;;;;;18.15;73.99;101507.36;108155;1253;73111;-71
2023/09/16 05:03:25;;;;;;;21.50;17.20;;;;;;;18.17;74.04;101508.64;108407;1256;71494;-71
2023/09/16 05:05:53;;;;;;;22.20;17.10;;;;;;;18.21;73.98;101510.72;108067;1254;70541;-71
2023/09/16 05:08:22;;;;;;;18.80;15.70;;;;;;;18.25;73.74;101513.34;107995;1256;61189;-70
2023/09/16 05:10:57;;;;;;;19.60;16.50;;;;;;;18.28;73.73;101510.32;108044;1254;61292;-72
2023/09/16 05:13:24;;;;;;;18.30;15.80;;;;;;;18.33;73.56;101507.95;108506;1254;73207;-72
2023/09/16 05:15:51;;;;;;;19.20;15.70;;;;;;;18.38;73.45;101507.95;108234;1254;72819;-71
2023/09/16 05:18:19;;;;;;;19.20;16.10;;;;;;;18.43;73.27;101510.06;108158;1254;72338;-72
2023/09/16 05:20:50;;;;;;;19.70;15.60;;;;;;;18.47;73.07;101507.60;108144;1254;61349;-71
2023/09/16 05:23:17;;;;;;;22.30;17.20;;;;;;;18.49;72.80;101506.82;107805;1257;60959;-71
2023/09/16 05:25:46;;;;;;;19.80;16.50;;;;;;;18.52;72.65;101511.39;108047;1253;74681;-72
2023/09/16 05:28:17;;;;;;;18.60;16.20;;;;;;;18.56;72.40;101511.77;107859;1258;72724;-74
2023/09/16 05:30:44;;;;;;;18.40;15.00;;;;;;;18.62;72.35;101514.41;107920;1260;73105;-73
2023/09/16 05:33:13;;;;;;;21.00;15.90;;;;;;;18.68;72.04;101517.63;107869;1254;62040;-72
2023/09/16 05:35:40;;;;;;;17.90;15.50;;;;;;;18.71;71.96;101517.95;107908;1258;61266;-70
2023/09/16 05:38:08;;;;;;;19.20;16.20;;;;;;;18.78;71.75;101520.22;107932;1254;74629;-72
2023/09/16 05:40:36;;;;;;;19.60;15.80;;;;;;;18.87;71.69;101524.01;107816;1254;71662;-73
2023/09/16 05:43:03;;;;;;;17.40;15.00;;;;;;;18.98;71.70;101525.55;107815;1254;72715;-72
2023/09/16 05:45:31;;;;;;;18.90;16.00;;;;;;;19.04;71.32;101524.99;107884;1254;61027;-72
2023/09/16 05:48:02;;;;;;;17.80;15.20;;;;;;;19.11;71.03;101529.08;108030;1254;61144;-73
2023/09/16 05:50:31;;;;;;;16.70;14.20;;;;;;;19.18;70.71;101531.73;107783;1254;74611;-72
2023/09/16 05:52:58;;;;;;;18.60;15.60;;;;;;;19.24;70.44;101531.56;108023;1254;72777;-73
2023/09/16 05:55:25;;;;;;;17.60;15.20;;;;;;;19.31;70.20;101532.48;107790;1254;72521;-73
2023/09/16 05:57:52;;;;;;;17.80;15.60;;;;;;;19.39;69.94;101534.38;107854;1254;62956;-72
2023/09/16 06:00:19;;;;;;;19.30;15.40;;;;;;;19.49;69.59;101531.16;107921;1254;61129;-71
2023/09/16 06:02:48;;;;;;;18.00;15.00;;;;;;;19.58;69.23;101537.15;108019;1257;74627;-71
2023/09/16 06:05:15;;;;;;;17.30;15.30;;;;;;;19.64;68.82;101538.77;108016;1257;72687;-71
2023/09/16 06:07:42;;;;;;;18.20;15.90;;;;;;;19.69;68.39;101541.56;107948;1254;72474;-72
2023/09/16 06:10:12;;;;;;;16.80;15.00;;;;;;;19.73;68.02;101540.91;107975;1254;62072;-72
2023/09/16 06:12:39;;;;;;;17.70;15.20;;;;;;;19.77;67.73;101533.20;107993;1255;61349;-72
2023/09/16 06:15:08;;;;;;;20.00;16.60;;;;;;;19.82;67.30;101537.46;107959;1257;73497;-72
2023/09/16 06:17:36;;;;;;;21.80;18.50;;;;;;;19.82;67.16;101539.52;108044;1257;71625;-72
2023/09/16 06:20:03;;;;;;;21.40;18.10;;;;;;;19.78;67.06;101543.77;107972;1255;72670;-72
2023/09/16 06:22:31;;;;;;;20.10;16.80;;;;;;;19.79;67.01;101544.61;107830;1253;61721;-73
2023/09/16 06:24:58;;;;;;;18.30;16.40;;;;;;;19.80;66.73;101540.86;107970;1258;60657;-73
2023/09/16 06:27:29;;;;;;;19.10;16.80;;;;;;;19.84;66.86;101546.12;108126;1254;72301;-73
2023/09/16 06:29:59;;;;;;;17.40;15.40;;;;;;;19.85;66.68;101546.53;108137;1254;71856;-73
2023/09/16 06:32:26;;;;;;;18.00;15.70;;;;;;;19.92;66.60;101549.34;107759;1257;234289;-72
2023/09/16 06:34:58;;;;;;;17.00;15.10;;;;;;;20.01;66.44;101550.39;107801;1254;61103;-72
2023/09/16 06:37:25;;;;;;;18.80;15.90;;;;;;;20.07;66.36;101550.20;108001;1259;61262;-72
2023/09/16 06:39:52;;;;;;;17.20;15.20;;;;;;;20.10;66.18;101554.21;107975;1253;74611;-72
2023/09/16 06:42:20;;;;;;;16.70;14.90;;;;;;;20.14;65.89;101551.04;107924;1254;71776;-72
2023/09/16 06:44:54;;;;;;;16.90;15.10;;;;;;;20.22;65.90;101555.10;108009;1254;72488;-72
2023/09/16 06:47:28;;;;;;;16.50;14.60;;;;;;;20.28;65.52;101556.61;108068;1254;62819;-72
2023/09/16 06:49:56;;;;;;;16.60;14.40;;;;;;;20.36;65.38;101552.79;108212;1254;61365;-73
2023/09/16 06:52:23;;;;;;;16.60;14.80;;;;;;;20.43;64.81;101555.98;107943;1255;74605;-73
2023/09/16 06:54:50;;;;;;;17.10;15.40;;;;;;;20.44;64.19;101558.83;107996;1257;72556;-72
2023/09/16 06:57:17;;;;;;;16.70;14.90;;;;;;;20.51;63.83;101562.09;108004;1254;72704;-72
2023/09/16 06:59:47;;;;;;;17.30;15.40;;;;;;;20.54;63.43;101566.08;108008;1254;61250;-72
2023/09/16 07:02:14;;;;;;;17.90;15.60;;;;;;;20.53;63.14;101568.52;108070;1253;60757;-72
2023/09/16 07:04:42;;;;;;;16.90;14.90;;;;;;;20.56;63.17;101569.17;108008;1260;74722;-72
2023/09/16 07:07:10;;;;;;;17.40;15.50;;;;;;;20.65;63.10;101571.14;107957;1259;71587;-73
2023/09/16 07:09:37;;;;;;;16.60;14.80;;;;;;;20.71;62.63;101570.73;107946;1254;72673;-73
2023/09/16 07:12:05;;;;;;;17.00;14.50;;;;;;;20.73;62.35;101572.13;107924;1258;60583;-72
2023/09/16 07:14:36;;;;;;;15.70;14.10;;;;;;;20.78;62.09;101569.13;108241;1254;61144;-73
2023/09/16 07:17:04;;;;;;;16.70;14.10;;;;;;;20.82;61.94;101570.09;108011;1254;74691;-73
2023/09/16 07:19:33;;;;;;;16.50;14.70;;;;;;;20.82;61.96;101575.46;108115;1255;71746;-74
2023/09/16 07:22:01;;;;;;;16.80;15.00;;;;;;;20.87;61.79;101578.76;108033;1258;72426;-73
2023/09/16 07:24:28;;;;;;;16.80;14.70;;;;;;;20.92;61.92;101583.32;108142;1254;61269;-74
2023/09/16 07:26:54;;;;;;;15.70;13.40;;;;;;;20.96;61.78;101585.63;107979;1260;61079;-73
2023/09/16 07:29:23;;;;;;;15.10;13.50;;;;;;;21.04;61.56;101588.29;108041;1257;74045;-74
2023/09/16 07:31:50;;;;;;;14.60;13.10;;;;;;;21.08;60.93;101588.38;108100;1254;72988;-73
2023/09/16 07:34:19;;;;;;;17.30;14.20;;;;;;;21.09;60.92;101587.15;108111;1258;73689;-73
2023/09/16 07:36:46;;;;;;;17.30;14.10;;;;;;;21.11;60.73;101585.86;108000;1253;61734;-73
2023/09/16 07:39:13;;;;;;;14.40;12.90;;;;;;;21.13;60.76;101586.32;107975;1259;61151;-74
2023/09/16 07:41:41;;;;;;;12.80;11.50;;;;;;;21.19;60.52;101584.02;108000;1258;74548;-74
2023/09/16 07:44:08;;;;;;;13.00;11.60;;;;;;;21.22;59.63;101587.55;107945;1260;72682;-74
2023/09/16 07:46:35;;;;;;;14.60;12.60;;;;;;;21.23;59.28;101588.78;107852;1260;70644;-72
2023/09/16 07:49:02;;;;;;;13.20;11.90;;;;;;;21.24;58.96;101587.44;107856;1254;61257;-73
2023/09/16 07:51:30;;;;;;;14.20;12.60;;;;;;;21.28;59.06;101589.81;107872;1255;61234;-73
2023/09/16 07:53:57;;;;;;;13.80;12.30;;;;;;;21.31;59.00;101588.34;108028;1257;74692;-72
2023/09/16 07:56:24;;;;;;;13.30;11.90;;;;;;;21.31;58.61;101585.82;107938;1255;72531;-73
2023/09/16 07:58:51;;;;;;;13.80;12.30;;;;;;;21.28;58.31;101593.16;107858;1254;72656;-74
2023/09/16 08:01:18;;;;;;;12.30;11.00;;;;;;;21.23;58.60;101599.20;108174;1255;61155;-71
2023/09/16 08:03:45;;;;;;;15.20;12.30;;;;;;;21.22;58.67;101599.83;108012;1257;60050;-73
2023/09/16 08:06:12;;;;;;;11.70;10.50;;;;;;;21.23;58.77;101601.98;108087;1254;74706;-73
2023/09/16 08:08:39;;;;;;;13.20;11.80;;;;;;;21.20;57.78;101602.70;107965;1255;72734;-72
2023/09/16 08:11:05;;;;;;;13.00;11.40;;;;;;;21.16;57.46;101598.60;107973;1257;72651;-73
2023/09/16 08:13:33;;;;;;;10.80;9.70;;;;;;;21.12;57.31;101603.13;107865;1254;61230;-72
2023/09/16 08:16:00;;;;;;;10.40;9.10;;;;;;;21.12;57.22;101598.11;107962;1255;61218;-73
2023/09/16 08:18:27;;;;;;;10.30;8.50;;;;;;;21.17;56.86;101598.30;108298;1254;75814;-73
2023/09/16 08:20:55;;;;;;;9.50;8.40;;;;;;;21.18;56.59;101601.27;107978;1255;71942;-72
2023/09/16 08:23:22;;;;;;;9.80;8.80;;;;;;;21.16;56.26;101601.33;108248;1255;72775;-72
2023/09/16 08:25:49;;;;;;;9.70;8.70;;;;;;;21.10;56.06;101603.89;108272;1254;61391;-74
2023/09/16 08:28:16;;;;;;;11.10;9.90;;;;;;;21.11;56.12;101602.45;108132;1254;60388;-72
2023/09/16 08:30:45;;;;;;;10.70;9.60;;;;;;;21.08;56.22;101603.41;107916;1254;74532;-74
2023/09/16 08:33:12;;;;;;;12.10;10.30;;;;;;;21.05;56.87;101606.41;107903;1257;72762;-73
2023/09/16 08:35:39;;;;;;;12.80;10.80;;;;;;;20.98;57.05;101608.18;108257;1254;73016;-75
2023/09/16 08:38:07;;;;;;;12.70;10.70;;;;;;;20.92;57.40;101611.64;108025;1254;60980;-74
2023/09/16 08:40:34;;;;;;;11.20;10.00;;;;;;;20.87;57.75;101614.86;107938;1254;61250;-72
2023/09/16 08:43:21;;;;;;;13.10;11.70;;;;;;;20.86;58.18;101617.05;108198;1254;74371;-73
2023/09/16 08:45:54;;;;;;;12.30;11.00;;;;;;;20.90;58.68;101619.52;108126;1254;72440;-74
2023/09/16 08:48:21;;;;;;;13.70;12.00;;;;;;;20.95;58.80;101620.42;107867;1254;72725;-73
2023/09/16 08:50:50;;;;;;;14.60;12.20;;;;;;;21.02;58.67;101623.98;108325;1254;61271;-73
2023/09/16 08:53:16;;;;;;;14.70;12.20;;;;;;;21.11;58.86;101621.52;108039;1253;61148;-73
2023/09/16 08:55:46;;;;;;;13.40;12.00;;;;;;;21.27;58.87;101621.14;107977;1253;77345;-73
2023/09/16 08:58:14;;;;;;;12.60;11.30;;;;;;;21.42;58.24;101620.53;107922;1254;72744;-74
2023/09/16 09:00:42;;;;;;;12.60;11.30;;;;;;;21.52;57.76;101617.27;107714;1260;71641;-74
2023/09/16 09:03:09;;;;;;;11.30;9.90;;;;;;;21.56;57.29;101619.89;108014;1254;61090;-73
2023/09/16 09:05:36;;;;;;;11.40;9.80;;;;;;;21.54;56.86;101620.86;108115;1254;61115;-74
2023/09/16 09:08:08;;;;;;;12.80;9.80;;;;;;;21.49;56.79;101625.32;108172;1257;73237;-74
2023/09/16 09:10:37;;;;;;;10.70;9.30;;;;;;;21.42;56.46;101623.40;107990;1257;72649;-73
2023/09/16 09:13:05;;;;;;;11.20;9.60;;;;;;;21.35;56.54;101628.17;107930;1254;71493;-73
2023/09/16 09:15:32;;;;;;;11.60;9.80;;;;;;;21.25;56.29;101632.92;108003;1257;60438;-73
2023/09/16 09:17:59;;;;;;;11.20;10.10;;;;;;;21.17;56.48;101632.09;107960;1254;61147;-73
2023/09/16 09:20:27;;;;;;;11.30;9.80;;;;;;;21.18;56.68;101633.43;107913;1254;74423;-73
2023/09/16 09:22:54;;;;;;;11.20;10.00;;;;;;;21.17;56.76;101631.83;107836;1257;75604;-73
2023/09/16 09:25:22;;;;;;;10.40;9.30;;;;;;;21.09;56.76;101631.70;108238;1254;73109;-74
2023/09/16 09:27:50;;;;;;;11.70;10.30;;;;;;;21.06;56.87;101630.20;107852;1254;61652;-74
2023/09/16 09:30:26;;;;;;;11.50;10.10;;;;;;;21.12;57.07;101627.84;108290;1254;59556;-74
2023/09/16 09:32:57;;;;;;;11.40;10.10;;;;;;;21.17;56.80;101629.34;107989;1254;73080;-73
2023/09/16 09:35:25;;;;;;;11.90;10.40;;;;;;;21.21;56.98;101631.11;108119;1254;72776;-73
2023/09/16 09:37:52;;;;;;;11.40;10.20;;;;;;;21.31;57.05;101631.39;108284;1257;72600;-73
2023/09/16 09:40:21;;;;;;;11.90;10.70;;;;;;;21.46;56.99;101626.48;107938;1254;63033;-73
2023/09/16 09:42:52;;;;;;;13.90;11.70;;;;;;;21.64;56.78;101623.33;108003;1254;61084;-73
2023/09/16 09:45:20;;;;;;;;;;;;;;;21.78;56.25;101622.19;107984;1254;74602;-74
2023/09/16 09:47:48;;;;;;;12.50;11.10;;;;;;;21.90;56.03;101624.88;107872;1254;72570;-75
2023/09/16 09:50:16;;;;;;;13.30;11.90;;;;;;;21.90;55.52;101624.96;107999;1254;72636;-73
2023/09/16 09:52:48;;;;;;;13.30;11.90;;;;;;;21.83;55.33;101623.56;107979;1254;61276;-74
2023/09/16 09:55:18;;;;;;;14.30;11.70;;;;;;;21.81;55.31;101623.21;108130;1254;61265;-73
2023/09/16 09:57:46;;;;;;;11.80;10.50;;;;;;;21.80;55.51;101625.47;108075;1254;74584;-74
2023/09/16 10:00:15;;;;;;;12.80;11.10;;;;;;;21.84;55.42;101622.16;108166;1254;71979;-72
2023/09/16 10:02:43;;;;;;;12.70;11.40;;;;;;;21.83;54.77;101621.45;108016;1254;72625;-74
2023/09/16 10:05:19;;;;;;;12.70;11.30;;;;;;;21.84;54.59;101623.48;108073;1254;61210;-73
2023/09/16 10:07:46;;;;;;;13.70;12.30;;;;;;;21.90;54.37;101624.11;108080;1254;61246;-74
2023/09/16 10:10:16;;;;;;;13.80;11.70;;;;;;;21.93;54.38;101624.83;108136;1254;74642;-73
2023/09/16 10:12:44;;;;;;;12.90;11.70;;;;;;;21.94;54.27;101624.00;107982;1254;72711;-74
2023/09/16 10:15:11;;;;;;;14.70;12.80;;;;;;;21.99;53.89;101622.20;107966;1254;71127;-74
2023/09/16 10:17:40;;;;;;;14.00;12.50;;;;;;;22.10;53.72;101619.65;107930;1254;60221;-76
2023/09/16 10:20:11;;;;;;;13.20;11.80;;;;;;;22.20;53.82;101618.90;108185;1254;59455;-75
2023/09/16 10:22:41;;;;;;;13.60;11.20;;;;;;;22.32;53.62;101616.11;107875;1259;74672;-73
2023/09/16 10:25:08;;;;;;;13.00;11.70;;;;;;;22.37;53.28;101616.57;107937;1260;72610;-73
2023/09/16 10:28:01;;;;;;;12.70;11.30;;;;;;;22.44;53.27;101612.95;107914;1254;72728;-74
2023/09/16 10:30:30;;;;;;;13.10;11.30;;;;;;;22.57;53.19;101615.30;107876;1253;61506;-73
2023/09/16 10:33:01;;;;;;;13.00;11.10;;;;;;;22.59;52.54;101616.91;108077;1254;61112;-73
2023/09/16 10:35:29;;;;;;;14.80;12.10;;;;;;;22.59;52.28;101611.27;107854;1254;74675;-74
2023/09/16 10:37:58;;;;;;;11.60;10.40;;;;;;;22.57;52.31;101616.16;108038;1253;72493;-73
2023/09/16 10:40:25;;;;;;;12.40;11.10;;;;;;;22.60;52.24;101612.13;107975;1254;72562;-73
2023/09/16 10:42:52;;;;;;;11.80;10.50;;;;;;;22.63;51.87;101610.50;107920;1254;61207;-73
2023/09/16 10:45:19;;;;;;;12.40;11.10;;;;;;;22.70;51.71;101608.73;107967;1254;61359;-74
2023/09/16 10:47:47;;;;;;;11.80;10.60;;;;;;;22.74;51.53;101609.14;108004;1255;74754;-73
2023/09/16 10:50:16;;;;;;;12.30;11.00;;;;;;;22.79;51.35;101612.21;108087;1254;72500;-74
2023/09/16 10:52:51;;;;;;;11.80;10.60;;;;;;;22.82;50.63;101612.89;108080;1254;72510;-74
2023/09/16 10:55:23;;;;;;;10.80;9.70;;;;;;;22.70;50.42;101610.15;108021;1254;61176;-73
2023/09/16 10:57:55;;;;;;;11.00;9.50;;;;;;;22.61;50.31;101611.55;107937;1257;61346;-74
2023/09/16 11:00:22;;;;;;;11.90;10.60;;;;;;;22.58;50.61;101607.05;108057;1254;75700;-73
2023/09/16 11:02:53;;;;;;;12.60;10.50;;;;;;;22.62;50.74;101606.17;107983;1254;72719;-74
2023/09/16 11:05:21;;;;;;;11.50;10.10;;;;;;;22.69;50.60;101603.41;108000;1254;72361;-73
2023/09/16 11:07:48;;;;;;;11.10;9.90;;;;;;;22.71;50.48;101605.00;107998;1254;61240;-74